createdAt,value
2023-04-23T00:01:11.976Z,52.63
2023-04-23T00:03:45.732Z,52.69
2023-04-23T00:06:20.470Z,52.62
2023-04-23T00:08:54.395Z,52.36
2023-04-23T00:11:27.203Z,52.51
2023-04-23T00:13:59.304Z,52.70
2023-04-23T00:16:40.588Z,52.62
2023-04-23T00:19:14.799Z,52.10
2023-04-23T00:21:47.152Z,52.54
2023-04-23T00:24:19.385Z,52.79
2023-04-23T00:26:52.224Z,53.14
2023-04-23T00:29:24.192Z,53.09
2023-04-23T00:31:56.980Z,53.04
2023-04-23T00:34:30.356Z,53.06
2023-04-23T00:37:07.706Z,53.16
2023-04-23T00:39:40.407Z,53.51
2023-04-23T00:42:15.635Z,52.98
2023-04-23T00:44:47.343Z,53.07
2023-04-23T00:47:22.815Z,52.81
2023-04-23T00:49:57.258Z,53.14
2023-04-23T00:52:27.548Z,52.63
2023-04-23T00:54:57.885Z,53.07
2023-04-23T00:57:28.656Z,53.24
2023-04-23T00:59:59.483Z,52.32
2023-04-23T01:02:31.787Z,52.38
2023-04-23T01:05:03.163Z,52.57
2023-04-23T01:07:36.029Z,51.28
2023-04-23T01:10:06.469Z,52.50
2023-04-23T01:12:36.190Z,52.23
2023-04-23T01:15:07.152Z,51.54
2023-04-23T01:17:36.176Z,52.15
2023-04-23T01:20:07.866Z,51.24
2023-04-23T01:22:39.612Z,50.83
2023-04-23T01:25:09.462Z,52.00
2023-04-23T01:27:39.925Z,51.09
2023-04-23T01:30:10.335Z,50.82
2023-04-23T01:32:40.626Z,49.71
2023-04-23T01:35:11.559Z,50.75
2023-04-23T01:37:41.512Z,50.29
2023-04-23T01:40:11.263Z,49.80
2023-04-23T01:42:42.234Z,49.90
2023-04-23T01:45:11.807Z,50.15
2023-04-23T01:47:43.080Z,49.48
2023-04-23T01:50:12.378Z,48.80
2023-04-23T01:52:42.416Z,48.88
2023-04-23T01:55:12.090Z,49.27
2023-04-23T01:57:41.651Z,49.51
2023-04-23T02:00:13.979Z,49.09
2023-04-23T02:02:45.245Z,48.71
2023-04-23T02:05:18.157Z,48.74
2023-04-23T02:07:50.213Z,47.87
2023-04-23T02:10:19.722Z,47.98
2023-04-23T02:12:50.195Z,48.18
2023-04-23T02:15:20.847Z,47.16
2023-04-23T02:17:52.470Z,47.05
2023-04-23T02:20:22.765Z,47.17
2023-04-23T02:22:52.138Z,46.76
2023-04-23T02:25:23.002Z,47.08
2023-04-23T02:27:52.036Z,46.31
2023-04-23T02:30:21.190Z,46.00
2023-04-23T02:32:51.333Z,46.52
2023-04-23T02:35:20.932Z,46.66
2023-04-23T02:37:50.106Z,46.99
2023-04-23T02:40:19.264Z,47.39
2023-04-23T02:42:48.433Z,46.59
2023-04-23T02:45:18.137Z,47.29
2023-04-23T02:47:47.159Z,46.77
2023-04-23T02:50:17.560Z,46.36
2023-04-23T02:52:47.337Z,46.12
2023-04-23T02:55:16.559Z,45.87
2023-04-23T02:57:46.672Z,45.46
2023-04-23T03:00:16.470Z,44.64
2023-04-23T03:02:46.052Z,44.88
2023-04-23T03:05:15.451Z,44.37
2023-04-23T03:07:44.289Z,45.28
2023-04-23T03:10:13.393Z,44.56
2023-04-23T03:12:42.548Z,43.56
2023-04-23T03:15:12.794Z,43.71
2023-04-23T03:17:42.790Z,43.29
2023-04-23T03:20:15.765Z,43.65
2023-04-23T03:22:45.300Z,43.19
2023-04-23T03:25:14.758Z,42.74
2023-04-23T03:27:45.167Z,43.61
2023-04-23T03:30:14.666Z,43.26
2023-04-23T03:32:43.457Z,43.02
2023-04-23T03:35:14.110Z,42.79
2023-04-23T03:37:47.502Z,43.54
2023-04-23T03:40:17.488Z,43.22
2023-04-23T03:42:49.671Z,42.32
2023-04-23T03:45:21.467Z,40.71
2023-04-23T03:47:50.867Z,40.42
2023-04-23T03:50:20.698Z,40.52
2023-04-23T03:53:00.273Z,40.61
2023-04-23T03:55:49.225Z,39.88
2023-04-23T03:58:18.965Z,39.10
2023-04-23T04:00:49.195Z,37.99
2023-04-23T04:03:18.794Z,38.17
2023-04-23T04:05:48.685Z,38.52
2023-04-23T04:08:17.674Z,37.24
2023-04-23T04:10:47.060Z,37.02
2023-04-23T04:13:17.164Z,36.68
2023-04-23T04:15:46.217Z,36.33
2023-04-23T04:18:15.862Z,37.10
2023-04-23T04:20:46.435Z,34.99
2023-04-23T04:23:15.668Z,34.60
2023-04-23T04:25:44.499Z,34.90
2023-04-23T04:28:13.688Z,32.76
2023-04-23T04:30:43.797Z,33.34
2023-04-23T04:33:12.825Z,32.33
2023-04-23T04:35:41.765Z,32.42
2023-04-23T04:38:10.912Z,30.77
2023-04-23T04:40:40.007Z,31.48
2023-04-23T04:43:08.965Z,31.30
2023-04-23T04:45:37.946Z,31.74
2023-04-23T04:48:06.890Z,31.10
2023-04-23T04:50:36.584Z,29.10
2023-04-23T04:53:05.446Z,29.27
2023-04-23T04:55:34.417Z,29.28
2023-04-23T04:58:03.598Z,28.62
2023-04-23T05:00:32.777Z,28.52
2023-04-23T05:03:02.209Z,28.12
2023-04-23T05:05:34.436Z,27.98
2023-04-23T05:08:04.883Z,27.95
2023-04-23T05:10:33.921Z,27.79
2023-04-23T05:13:02.797Z,28.17
2023-04-23T05:15:34.073Z,28.90
2023-04-23T05:18:08.777Z,27.34
2023-04-23T05:20:39.541Z,27.43
2023-04-23T05:23:08.521Z,26.72
2023-04-23T05:25:37.394Z,26.49
2023-04-23T05:28:06.623Z,27.33
2023-04-23T05:30:35.580Z,26.79
2023-04-23T05:33:04.956Z,26.82
2023-04-23T05:35:34.251Z,26.55
2023-04-23T05:38:03.737Z,26.63
2023-04-23T05:40:32.927Z,27.10
2023-04-23T05:43:02.345Z,27.65
2023-04-23T05:45:32.818Z,26.87
2023-04-23T05:48:02.225Z,26.48
2023-04-23T05:50:31.519Z,26.73
2023-04-23T05:53:00.498Z,27.66
2023-04-23T05:55:29.994Z,26.98
2023-04-23T05:57:59.097Z,26.90
2023-04-23T06:00:28.137Z,27.47
2023-04-23T06:02:57.371Z,27.08
2023-04-23T06:05:26.875Z,26.24
2023-04-23T06:07:55.867Z,26.51
2023-04-23T06:10:25.112Z,26.57
2023-04-23T06:12:56.354Z,26.80
2023-04-23T06:15:28.077Z,25.84
2023-04-23T06:17:57.419Z,25.05
2023-04-23T06:20:27.046Z,25.92
2023-04-23T06:22:56.168Z,25.70
2023-04-23T06:25:25.092Z,26.00
2023-04-23T06:27:54.279Z,25.54
2023-04-23T06:30:26.718Z,23.75
2023-04-23T06:32:55.922Z,23.77
2023-04-23T06:35:25.024Z,24.04
2023-04-23T06:37:54.571Z,24.48
2023-04-23T06:40:23.676Z,24.95
2023-04-23T06:42:53.009Z,23.50
2023-04-23T06:45:39.296Z,23.73
2023-04-23T06:48:08.744Z,23.72
2023-04-23T06:50:37.723Z,22.69
2023-04-23T06:53:07.258Z,23.10
2023-04-23T06:55:37.195Z,22.06
2023-04-23T06:58:08.152Z,23.11
2023-04-23T07:00:37.406Z,23.69
2023-04-23T07:03:06.699Z,23.57
2023-04-23T07:05:35.806Z,22.68
2023-04-23T07:08:04.770Z,22.40
2023-04-23T07:10:33.974Z,21.84
2023-04-23T07:13:03.255Z,21.59
2023-04-23T07:15:32.519Z,21.24
2023-04-23T07:18:01.681Z,21.18
2023-04-23T07:20:31.612Z,21.75
2023-04-23T07:23:01.620Z,21.99
2023-04-23T07:25:31.073Z,21.88
2023-04-23T07:28:00.248Z,19.46
2023-04-23T07:30:30.105Z,20.78
2023-04-23T07:32:59.539Z,21.91
2023-04-23T07:35:28.512Z,23.04
2023-04-23T07:37:58.973Z,21.47
2023-04-23T07:40:28.799Z,22.75
2023-04-23T07:43:00.212Z,22.06
2023-04-23T07:45:30.737Z,20.90
2023-04-23T07:48:00.519Z,19.16
2023-04-23T07:50:31.426Z,20.21
2023-04-23T07:53:00.418Z,20.70
2023-04-23T07:55:29.380Z,21.51
2023-04-23T07:57:58.633Z,21.86
2023-04-23T08:00:28.905Z,20.89
2023-04-23T08:03:01.562Z,21.38
2023-04-23T08:05:31.336Z,20.95
2023-04-23T08:08:00.638Z,21.27
2023-04-23T08:10:30.276Z,21.52
2023-04-23T08:12:59.220Z,22.53
2023-04-23T08:15:28.456Z,20.52
2023-04-23T08:17:58.942Z,20.88
2023-04-23T08:20:28.823Z,20.92
2023-04-23T08:22:57.704Z,19.75
2023-04-23T08:25:26.802Z,20.26
2023-04-23T08:27:55.851Z,19.94
2023-04-23T08:30:24.926Z,20.20
2023-04-23T08:32:57.753Z,20.05
2023-04-23T08:35:26.810Z,20.93
2023-04-23T08:37:55.786Z,20.37
2023-04-23T08:40:25.305Z,20.93
2023-04-23T08:43:04.121Z,20.96
2023-04-23T08:45:36.009Z,20.40
2023-04-23T08:48:06.746Z,20.76
2023-04-23T08:50:37.748Z,19.91
2023-04-23T08:53:08.806Z,20.26
2023-04-23T08:55:38.396Z,20.32
2023-04-23T08:58:08.194Z,21.19
2023-04-23T09:00:37.235Z,19.83
2023-04-23T09:03:07.555Z,19.61
2023-04-23T09:05:36.690Z,20.11
2023-04-23T09:08:06.279Z,20.58
2023-04-23T09:10:38.797Z,20.28
2023-04-23T09:13:08.015Z,20.32
2023-04-23T09:15:40.648Z,20.02
2023-04-23T09:18:09.943Z,21.05
2023-04-23T09:20:38.868Z,20.17
2023-04-23T09:23:15.249Z,20.36
2023-04-23T09:25:44.467Z,19.87
2023-04-23T09:28:13.253Z,20.35
2023-04-23T09:30:50.091Z,20.24
2023-04-23T09:33:19.274Z,20.13
2023-04-23T09:35:49.936Z,19.88
2023-04-23T09:38:21.426Z,20.02
2023-04-23T09:40:52.040Z,20.59
2023-04-23T09:43:21.302Z,20.88
2023-04-23T09:45:51.510Z,19.77
2023-04-23T09:48:22.928Z,20.27
2023-04-23T09:50:51.990Z,20.51
2023-04-23T09:53:21.416Z,21.24
2023-04-23T09:55:54.335Z,20.71
2023-04-23T09:58:28.932Z,19.87
2023-04-23T10:01:09.251Z,20.46
2023-04-23T10:03:43.371Z,19.28
2023-04-23T10:06:37.004Z,20.92
2023-04-23T10:09:08.912Z,20.21
2023-04-23T10:11:39.360Z,20.16
2023-04-23T10:14:10.210Z,20.17
2023-04-23T10:16:48.724Z,21.16
2023-04-23T10:19:26.608Z,20.14
2023-04-23T10:22:08.612Z,21.02
2023-04-23T10:24:50.046Z,19.83
2023-04-23T10:29:52.772Z,19.50
2023-04-23T10:32:22.887Z,20.00
2023-04-23T10:34:53.423Z,20.13
2023-04-23T10:37:23.664Z,20.15
2023-04-23T10:39:57.190Z,20.65
2023-04-23T10:42:27.041Z,19.71
2023-04-23T10:45:07.114Z,20.65
2023-04-23T10:47:39.393Z,20.02
2023-04-23T10:50:23.120Z,20.01
2023-04-23T10:52:55.108Z,20.81
2023-04-23T10:55:29.363Z,20.59
2023-04-23T10:58:09.136Z,19.35
2023-04-23T11:00:47.175Z,19.71
2023-04-23T11:03:43.165Z,19.05
2023-04-23T11:06:21.997Z,19.37
2023-04-23T11:08:55.372Z,19.96
2023-04-23T11:11:41.375Z,20.64
2023-04-23T11:14:17.124Z,20.62
2023-04-23T11:16:46.461Z,20.37
2023-04-23T11:19:19.873Z,18.93
2023-04-23T11:22:00.243Z,19.97
2023-04-23T11:24:34.615Z,20.23
2023-04-23T11:27:07.686Z,20.02
2023-04-23T11:29:38.873Z,21.05
2023-04-23T11:32:15.213Z,20.63
2023-04-23T11:34:46.682Z,20.08
2023-04-23T11:37:17.829Z,19.51
2023-04-23T11:39:48.423Z,20.23
2023-04-23T11:42:18.407Z,19.71
2023-04-23T11:44:48.928Z,20.52
2023-04-23T11:47:19.584Z,20.01
2023-04-23T11:49:50.044Z,20.95
2023-04-23T11:52:18.964Z,19.66
2023-04-23T11:54:47.981Z,19.45
2023-04-23T11:57:17.367Z,19.06
2023-04-23T11:59:46.426Z,21.43
2023-04-23T12:02:15.353Z,21.13
2023-04-23T12:04:45.644Z,20.61
2023-04-23T12:07:25.810Z,20.59
2023-04-23T12:10:02.416Z,21.09
2023-04-23T12:12:37.093Z,20.00
2023-04-23T12:15:11.076Z,20.23
2023-04-23T12:17:40.121Z,21.85
2023-04-23T12:20:14.444Z,21.41
2023-04-23T12:22:43.579Z,20.49
2023-04-23T12:25:12.779Z,20.48
2023-04-23T12:27:43.533Z,20.88
2023-04-23T12:30:13.934Z,20.76
2023-04-23T12:32:43.014Z,20.77
2023-04-23T12:35:13.105Z,21.08
2023-04-23T12:37:42.783Z,21.31
2023-04-23T12:40:12.278Z,20.53
2023-04-23T12:42:41.279Z,20.97
2023-04-23T12:45:11.358Z,21.09
2023-04-23T12:47:40.405Z,22.40
2023-04-23T12:50:09.987Z,21.91
2023-04-23T12:52:39.470Z,23.03
2023-04-23T12:55:08.640Z,22.24
2023-04-23T12:57:37.804Z,22.61
2023-04-23T13:00:07.176Z,21.98
2023-04-23T13:02:36.421Z,23.47
2023-04-23T13:05:05.793Z,23.82
2023-04-23T13:07:34.929Z,23.81
2023-04-23T13:10:03.826Z,23.46
2023-04-23T13:12:33.402Z,24.65
2023-04-23T13:15:02.412Z,24.75
2023-04-23T13:17:31.723Z,25.51
2023-04-23T13:20:00.866Z,25.41
2023-04-23T13:22:30.937Z,25.04
2023-04-23T13:25:01.182Z,25.06
2023-04-23T13:27:31.864Z,25.46
2023-04-23T13:30:01.376Z,25.08
2023-04-23T13:32:35.222Z,25.34
2023-04-23T13:35:05.982Z,25.48
2023-04-23T13:37:35.104Z,25.43
2023-04-23T13:40:05.450Z,25.75
2023-04-23T13:42:35.299Z,26.45
2023-04-23T13:45:07.267Z,26.28
2023-04-23T13:47:36.890Z,26.94
2023-04-23T13:50:07.965Z,26.41
2023-04-23T13:52:38.429Z,26.55
2023-04-23T13:55:09.116Z,26.89
2023-04-23T13:57:39.299Z,27.79
2023-04-23T14:00:09.906Z,28.67
2023-04-23T14:02:40.169Z,29.17
2023-04-23T14:05:10.257Z,28.59
2023-04-23T14:07:39.184Z,28.68
2023-04-23T14:10:08.845Z,28.81
2023-04-23T14:12:38.588Z,28.33
2023-04-23T14:15:09.211Z,28.98
2023-04-23T14:17:41.791Z,29.43
2023-04-23T14:20:11.718Z,29.02
2023-04-23T14:22:40.991Z,28.73
2023-04-23T14:25:16.012Z,28.73
2023-04-23T14:27:53.125Z,28.29
2023-04-23T14:30:27.441Z,28.63
2023-04-23T14:32:57.577Z,28.78
2023-04-23T14:35:39.495Z,28.90
2023-04-23T14:38:11.566Z,28.45
2023-04-23T14:40:40.769Z,28.85
2023-04-23T14:43:15.534Z,29.04
2023-04-23T14:45:45.958Z,28.72
2023-04-23T14:48:14.910Z,28.98
2023-04-23T14:50:44.023Z,29.75
2023-04-23T14:53:13.079Z,29.92
2023-04-23T14:55:44.156Z,29.19
2023-04-23T14:58:13.436Z,29.57
2023-04-23T15:00:42.563Z,29.50
2023-04-23T15:03:11.943Z,30.28
2023-04-23T15:05:42.970Z,30.49
2023-04-23T15:08:12.049Z,30.60
2023-04-23T15:10:41.388Z,31.42
2023-04-23T15:13:31.428Z,30.83
2023-04-23T15:16:05.585Z,31.60
2023-04-23T15:18:35.339Z,31.49
2023-04-23T15:21:04.718Z,31.31
2023-04-23T15:23:34.273Z,31.40
2023-04-23T15:26:04.698Z,31.59
2023-04-23T15:28:33.867Z,31.60
2023-04-23T15:31:02.798Z,31.68
2023-04-23T15:33:32.226Z,31.41
2023-04-23T15:36:01.155Z,31.25
2023-04-23T15:38:30.308Z,30.32
2023-04-23T15:40:59.461Z,30.32
2023-04-23T15:43:28.743Z,30.91
2023-04-23T15:45:59.970Z,31.21
2023-04-23T15:48:29.611Z,31.94
2023-04-23T15:50:59.038Z,32.04
2023-04-23T15:53:29.420Z,32.05
2023-04-23T15:55:58.799Z,31.58
2023-04-23T15:58:27.731Z,31.66
2023-04-23T16:00:57.437Z,33.09
2023-04-23T16:03:26.869Z,32.54
2023-04-23T16:05:55.981Z,32.94
2023-04-23T16:08:25.018Z,33.79
2023-04-23T16:10:54.478Z,33.73
2023-04-23T16:13:24.150Z,33.27
2023-04-23T16:15:54.301Z,32.67
2023-04-23T16:18:23.700Z,32.01
2023-04-23T16:20:52.700Z,31.79
2023-04-23T16:23:22.013Z,31.94
2023-04-23T16:25:51.201Z,31.82
2023-04-23T16:28:20.516Z,31.62
2023-04-23T16:30:50.293Z,31.69
2023-04-23T16:33:19.471Z,31.88
2023-04-23T16:35:48.791Z,32.08
2023-04-23T16:38:18.362Z,32.13
2023-04-23T16:40:48.551Z,32.16
2023-04-23T16:43:17.589Z,32.58
2023-04-23T16:45:47.142Z,33.69
2023-04-23T16:48:17.882Z,32.93
2023-04-23T16:50:47.052Z,32.48
2023-04-23T16:53:16.248Z,32.18
2023-04-23T16:55:45.959Z,31.95
2023-04-23T16:58:15.188Z,32.62
2023-04-23T17:00:45.918Z,32.67
2023-04-23T17:03:15.374Z,32.84
2023-04-23T17:05:45.094Z,34.01
2023-04-23T17:08:14.073Z,34.06
2023-04-23T17:10:43.738Z,33.63
2023-04-23T17:13:12.773Z,34.01
2023-04-23T17:15:42.539Z,33.40
2023-04-23T17:18:12.557Z,33.02
2023-04-23T17:20:42.000Z,33.73
2023-04-23T17:23:11.035Z,33.96
2023-04-23T17:25:40.004Z,33.93
2023-04-23T17:28:09.873Z,34.63
2023-04-23T17:30:39.302Z,35.28
2023-04-23T17:33:08.347Z,35.81
2023-04-23T17:35:38.197Z,34.80
2023-04-23T17:38:07.135Z,35.39
2023-04-23T17:40:37.405Z,35.16
2023-04-23T17:43:07.862Z,34.98
2023-04-23T17:45:36.640Z,35.10
2023-04-23T17:48:06.581Z,35.78
2023-04-23T17:50:36.086Z,35.77
2023-04-23T17:53:06.133Z,36.16
2023-04-23T17:55:35.292Z,36.25
2023-04-23T17:58:08.027Z,35.94
2023-04-23T18:00:38.509Z,35.54
2023-04-23T18:03:09.799Z,35.80
2023-04-23T18:05:38.985Z,36.23
2023-04-23T18:08:09.130Z,36.39
2023-04-23T18:10:39.280Z,36.28
2023-04-23T18:13:12.380Z,35.96
2023-04-23T18:15:46.871Z,35.89
2023-04-23T18:18:15.862Z,35.75
2023-04-23T18:20:47.277Z,36.60
2023-04-23T18:23:16.946Z,36.88
2023-04-23T18:25:45.780Z,36.96
2023-04-23T18:28:15.798Z,37.31
2023-04-23T18:30:44.688Z,37.21
2023-04-23T18:33:17.835Z,36.71
2023-04-23T18:35:49.622Z,37.21
2023-04-23T18:38:38.482Z,37.28
2023-04-23T18:41:07.515Z,37.24
2023-04-23T18:43:36.271Z,37.22
2023-04-23T18:46:05.715Z,37.60
2023-04-23T18:48:34.520Z,37.45
2023-04-23T18:51:15.461Z,37.44
2023-04-23T18:53:44.583Z,37.73
2023-04-23T18:56:13.472Z,38.56
2023-04-23T18:58:42.718Z,38.01
2023-04-23T19:01:11.711Z,38.17
2023-04-23T19:03:40.877Z,37.94
2023-04-23T19:06:10.070Z,37.22
2023-04-23T19:08:39.885Z,37.58
2023-04-23T19:11:09.272Z,37.19
2023-04-23T19:13:38.223Z,37.26
2023-04-23T19:16:07.711Z,38.21
2023-04-23T19:18:37.231Z,38.00
2023-04-23T19:21:07.196Z,38.11
2023-04-23T19:23:36.105Z,38.67
2023-04-23T19:26:07.656Z,39.53
2023-04-23T19:28:36.836Z,39.33
2023-04-23T19:31:05.761Z,39.41
2023-04-23T19:33:36.311Z,39.06
2023-04-23T19:36:05.633Z,39.80
2023-04-23T19:38:34.662Z,39.52
2023-04-23T19:41:05.613Z,40.52
2023-04-23T19:43:34.601Z,40.80
2023-04-23T19:46:03.539Z,40.52
2023-04-23T19:48:32.742Z,40.33
2023-04-23T19:51:01.804Z,40.30
2023-04-23T19:53:31.147Z,41.41
2023-04-23T19:56:00.320Z,41.52
2023-04-23T19:58:29.347Z,41.19
2023-04-23T20:00:59.099Z,41.67
2023-04-23T20:03:30.675Z,42.15
2023-04-23T20:06:00.390Z,42.07
2023-04-23T20:08:42.780Z,41.63
2023-04-23T20:11:12.547Z,41.78
2023-04-23T20:13:44.302Z,41.92
2023-04-23T20:16:14.402Z,41.79
2023-04-23T20:18:44.878Z,41.50
2023-04-23T20:21:15.125Z,41.29
2023-04-23T20:23:45.380Z,42.77
2023-04-23T20:26:15.575Z,42.07
2023-04-23T20:28:48.084Z,41.85
2023-04-23T20:31:20.011Z,41.75
2023-04-23T20:33:52.709Z,41.20
2023-04-23T20:36:25.231Z,40.93
2023-04-23T20:38:59.580Z,41.72
2023-04-23T20:41:33.118Z,41.97
2023-04-23T20:44:04.995Z,42.57
2023-04-23T20:46:40.036Z,42.76
2023-04-23T20:49:10.604Z,41.93
2023-04-23T20:51:41.402Z,41.94
2023-04-23T20:54:13.201Z,42.41
2023-04-23T20:56:43.927Z,42.85
2023-04-23T20:59:14.820Z,43.43
2023-04-23T21:01:45.667Z,43.30
2023-04-23T21:04:17.687Z,43.59
2023-04-23T21:06:48.720Z,44.05
2023-04-23T21:09:20.200Z,43.79
2023-04-23T21:11:52.131Z,44.04
2023-04-23T21:14:22.726Z,44.46
2023-04-23T21:16:54.721Z,44.54
2023-04-23T21:19:26.625Z,44.53
2023-04-23T21:21:57.401Z,44.85
2023-04-23T21:24:27.968Z,45.05
2023-04-23T21:26:59.039Z,45.61
2023-04-23T21:29:30.093Z,46.12
2023-04-23T21:32:01.343Z,46.05
2023-04-23T21:34:32.148Z,45.80
2023-04-23T21:37:03.068Z,46.20
2023-04-23T21:39:34.567Z,46.04
2023-04-23T21:42:05.420Z,46.89
2023-04-23T21:44:41.845Z,46.61
2023-04-23T21:47:12.453Z,46.98
2023-04-23T21:49:45.374Z,47.17
2023-04-23T21:52:16.255Z,47.47
2023-04-23T21:54:47.078Z,47.98
2023-04-23T21:57:17.794Z,47.74
2023-04-23T21:59:49.412Z,47.16
2023-04-23T22:02:20.742Z,47.51
2023-04-23T22:04:52.197Z,47.91
2023-04-23T22:07:22.964Z,47.76
2023-04-23T22:09:53.963Z,48.11
2023-04-23T22:12:25.549Z,48.23
2023-04-23T22:14:57.448Z,48.20
2023-04-23T22:17:31.624Z,48.39
2023-04-23T22:20:02.525Z,48.17
2023-04-23T22:22:34.022Z,48.87
2023-04-23T22:25:13.833Z,49.41
2023-04-23T22:27:45.646Z,48.88
2023-04-23T22:30:17.700Z,48.62
2023-04-23T22:32:48.735Z,48.36
2023-04-23T22:35:20.138Z,48.74
2023-04-23T22:37:50.880Z,48.47
2023-04-23T22:40:22.800Z,48.31
2023-04-23T22:42:53.619Z,49.27
2023-04-23T22:45:25.259Z,50.35
2023-04-23T22:47:56.664Z,50.06
2023-04-23T22:50:28.153Z,49.78
2023-04-23T22:52:58.954Z,50.02
2023-04-23T22:55:29.580Z,49.82
2023-04-23T22:58:00.382Z,49.21
2023-04-23T23:00:31.210Z,49.57
2023-04-23T23:03:03.089Z,49.93
2023-04-23T23:05:33.912Z,50.18
2023-04-23T23:08:04.658Z,49.89
2023-04-23T23:10:45.027Z,50.00
2023-04-23T23:13:16.264Z,49.79
2023-04-23T23:15:48.169Z,49.99
2023-04-23T23:18:19.809Z,49.58
2023-04-23T23:20:50.713Z,49.62
2023-04-23T23:23:23.048Z,50.78
2023-04-23T23:25:53.487Z,50.99
2023-04-23T23:28:27.588Z,50.44
2023-04-23T23:30:59.535Z,50.40
2023-04-23T23:33:30.484Z,50.60
2023-04-23T23:36:01.443Z,50.51
2023-04-23T23:38:32.486Z,48.40
2023-04-23T23:41:03.170Z,47.23
2023-04-23T23:43:34.996Z,47.80
2023-04-23T23:46:05.874Z,47.11
2023-04-23T23:48:46.725Z,47.46
2023-04-23T23:51:17.773Z,47.02
2023-04-23T23:53:48.549Z,47.14
2023-04-23T23:56:19.424Z,46.90
2023-04-23T23:58:50.994Z,47.44
